Eviapetrol I — SY5401 — position and weather

sailwx.info

Track history (hours):
 
Tides and Currents Weather Stations Pressure Air Temp Water Temp Dewpoint Dewpoint Depression Visibility Wind Speed Wind Dir Waves Ship Positions

Eviapetrol I

Last reported at 2017-Oct-20 03:30 UTC. Time now 2017-Oct-20 03:43 UTC.
Position N 37°55' E 023°05'.

Length 75 m; draft 4.6 m.

Type: Tanker. MMSI: 240285000.

Date/timePositionNaut miles runAvg speedWind from/ knotsBaromVisibWave heightAir tempDewpointWater temp
2017-Oct-20 03:30N 37°55' E 023°05'0 0.1
2017-Oct-20 03:00N 37°55' E 023°05'1 1.2
2017-Oct-20 02:30N 37°55' E 023°06'0 0.1
2017-Oct-20 02:00N 37°55' E 023°06'0 0.0
2017-Oct-20 01:30N 37°55' E 023°06'0 0.0
2017-Oct-20 01:00N 37°55' E 023°06'0 0.0
2017-Oct-20 00:30N 37°55' E 023°06'0 0.0
2017-Oct-20 00:00N 37°55' E 023°06'0 0.0
2017-Oct-19 23:30N 37°55' E 023°06'0 0.0
2017-Oct-19 23:00N 37°55' E 023°06'0 0.0
2017-Oct-19 22:30N 37°55' E 023°06'0 0.1
2017-Oct-19 22:00N 37°55' E 023°06'1 1.2
2017-Oct-19 21:29N 37°55' E 023°05'0 0.0
2017-Oct-19 20:59N 37°55' E 023°05'0 0.0
2017-Oct-19 20:29N 37°55' E 023°05'0 0.0
2017-Oct-19 19:59N 37°55' E 023°05'0 0.0
2017-Oct-19 19:29N 37°55' E 023°05'0 0.0
2017-Oct-19 18:59N 37°55' E 023°05'0 0.0
2017-Oct-19 18:29N 37°55' E 023°05'0 0.0
2017-Oct-19 17:59N 37°55' E 023°05'0 0.0
2017-Oct-19 17:29N 37°55' E 023°05'0 0.0
2017-Oct-19 16:59N 37°55' E 023°05'1 1.1
2017-Oct-19 16:29N 37°55' E 023°06'0 0.4
2017-Oct-19 15:59N 37°54' E 023°06'0 1.0
2017-Oct-19 15:29N 37°55' E 023°06'0 0.0
2017-Oct-19 14:59N 37°55' E 023°06'0 0.0
2017-Oct-19 14:29N 37°55' E 023°06'0 0.0
2017-Oct-19 13:59N 37°55' E 023°06'0 0.0
2017-Oct-19 13:29N 37°55' E 023°06'0 0.1
2017-Oct-19 12:59N 37°55' E 023°06'0 0.1
2017-Oct-19 12:29N 37°55' E 023°06'0 0.0
2017-Oct-19 11:59N 37°55' E 023°06'0 0.0
2017-Oct-19 11:29N 37°55' E 023°06'0 0.0
2017-Oct-19 10:59N 37°55' E 023°06'0 0.0
2017-Oct-19 10:29N 37°55' E 023°06'0 0.0
2017-Oct-19 09:59N 37°55' E 023°06'0 0.0
2017-Oct-19 09:29N 37°55' E 023°06'0 0.0
2017-Oct-19 08:59N 37°55' E 023°06'0 0.0
2017-Oct-19 08:29N 37°55' E 023°06'0 0.0
2017-Oct-19 07:59N 37°55' E 023°06'0 0.0
2017-Oct-19 07:29N 37°55' E 023°06'0 0.0
2017-Oct-19 06:59N 37°55' E 023°06'0 0.0
2017-Oct-19 06:29N 37°55' E 023°06'0 0.0
2017-Oct-19 05:59N 37°55' E 023°06'0 0.1
2017-Oct-19 05:29N 37°55' E 023°06'0 0.0
2017-Oct-19 04:59N 37°55' E 023°06'0 0.0
2017-Oct-19 04:29N 37°55' E 023°06'0 0.0
2017-Oct-19 03:59N 37°55' E 023°06'0 0.0
2017-Oct-19 03:29N 37°55' E 023°06'0 0.0
2017-Oct-19 02:59N 37°55' E 023°06'0 0.0
2017-Oct-19 02:29N 37°55' E 023°06'0 0.0
2017-Oct-19 01:59N 37°55' E 023°06'0 0.0
2017-Oct-19 01:29N 37°55' E 023°06'0 0.0
2017-Oct-19 00:59N 37°55' E 023°06'0 0.0
2017-Oct-19 00:29N 37°55' E 023°06'0 0.0
2017-Oct-18 23:59N 37°55' E 023°06'0 0.0
2017-Oct-18 23:29N 37°55' E 023°06'0 0.0
2017-Oct-18 22:59N 37°55' E 023°06'0 0.0
2017-Oct-18 22:29N 37°55' E 023°06'0 0.0
2017-Oct-18 21:59N 37°55' E 023°06'0 0.0
2017-Oct-18 21:29N 37°55' E 023°06'0 0.0
2017-Oct-18 20:59N 37°55' E 023°06'0 0.0
2017-Oct-18 20:29N 37°55' E 023°06'0 0.0
2017-Oct-18 19:59N 37°55' E 023°06'0 0.0
2017-Oct-18 19:29N 37°55' E 023°06'0 0.0
2017-Oct-18 18:59N 37°55' E 023°06'0 0.0
2017-Oct-18 18:29N 37°55' E 023°06'0 0.4
2017-Oct-18 18:00N 37°55' E 023°06'4 8.7
2017-Oct-18 17:30N 37°51' E 023°09'510.3
2017-Oct-18 17:00N 37°47' E 023°13'510.3
2017-Oct-18 16:30N 37°43' E 023°17'5 9.5
2017-Oct-18 16:00N 37°40' E 023°21'610.0
2017-Oct-18 15:27N 37°38' E 023°28'510.3
2017-Oct-18 15:00N 37°35' E 023°33'1010.2
2017-Oct-18 14:00N 37°29' E 023°43'  
2017-Oct-16 04:09N 37°37' E 023°59'3 9.8
2017-Oct-16 03:50N 37°37' E 023°55'3 9.7
2017-Oct-16 03:30N 37°38' E 023°51'5 9.5
2017-Oct-16 03:00N 37°39' E 023°46'5 9.3
2017-Oct-16 02:30N 37°42' E 023°41'510.1
2017-Oct-16 02:00N 37°47' E 023°38'5 9.9
2017-Oct-16 01:30N 37°51' E 023°35'4 6.8
2017-Oct-16 00:58N 37°54' E 023°32'0 0.1
2017-Oct-16 00:28N 37°54' E 023°32'0 0.0
2017-Oct-15 23:58N 37°54' E 023°32'0 0.0
2017-Oct-15 23:28N 37°54' E 023°32'0 0.0
2017-Oct-15 22:58N 37°54' E 023°32'0 0.0
2017-Oct-15 22:28N 37°54' E 023°32'0 0.1
2017-Oct-15 21:58N 37°54' E 023°32'1 3.1
2017-Oct-15 21:30N 37°53' E 023°31'5 9.2
2017-Oct-15 21:01N 37°52' E 023°25'5 9.8
2017-Oct-15 20:31N 37°53' E 023°19'5 9.9
2017-Oct-15 20:00N 37°54' E 023°13'510.0
2017-Oct-15 19:31N 37°54' E 023°07'1 2.3
2017-Oct-15 18:58N 37°55' E 023°05'0 0.0
2017-Oct-15 17:46N 37°55' E 023°05'0 0.0
2017-Oct-15 17:13N 37°55' E 023°05'0 0.0
2017-Oct-15 16:58N 37°55' E 023°05'0 0.0
2017-Oct-15 16:28N 37°55' E 023°05'0 0.0
2017-Oct-15 15:58N 37°55' E 023°05'0 0.0
2017-Oct-15 15:28N 37°55' E 023°05'0 0.0
2017-Oct-15 14:58N 37°55' E 023°05'0 0.0
2017-Oct-15 13:58N 37°55' E 023°05'0 0.0
2017-Oct-15 13:28N 37°55' E 023°05'0 0.0
2017-Oct-15 12:58N 37°55' E 023°05'0 0.0
2017-Oct-15 12:28N 37°55' E 023°05'0 0.0
2017-Oct-15 11:58N 37°55' E 023°05'0 0.0
2017-Oct-15 11:28N 37°55' E 023°05'0 0.0
2017-Oct-15 10:58N 37°55' E 023°05'0 0.0
2017-Oct-15 10:28N 37°55' E 023°05'0 0.0
2017-Oct-15 09:58N 37°55' E 023°05'0 0.0
2017-Oct-15 09:28N 37°55' E 023°05'0 0.0
2017-Oct-15 08:58N 37°55' E 023°05'0 0.0
2017-Oct-15 08:28N 37°55' E 023°05'0 0.0
2017-Oct-15 07:58N 37°55' E 023°05'0 0.0
2017-Oct-15 07:28N 37°55' E 023°05'0 0.0
2017-Oct-15 06:58N 37°55' E 023°05'0 0.0
2017-Oct-15 06:28N 37°55' E 023°05'0 0.0
2017-Oct-15 05:58N 37°55' E 023°05'0 0.0
2017-Oct-15 05:28N 37°55' E 023°05'0 0.0
2017-Oct-15 04:58N 37°55' E 023°05'0 0.0
2017-Oct-15 04:28N 37°55' E 023°05'0 0.0
2017-Oct-15 03:58N 37°55' E 023°05'0 0.0
2017-Oct-15 03:28N 37°55' E 023°05'0 0.0
2017-Oct-15 02:58N 37°55' E 023°05'0 0.0
2017-Oct-15 02:28N 37°55' E 023°05'0 0.0
2017-Oct-15 01:58N 37°55' E 023°05'1 1.1
2017-Oct-15 01:30N 37°55' E 023°05'0 0.5
2017-Oct-15 00:58N 37°54' E 023°05'0 0.0
2017-Oct-15 00:28N 37°54' E 023°05'0 0.0
2017-Oct-14 23:58N 37°54' E 023°04'0 0.1
2017-Oct-14 23:28N 37°55' E 023°05'0 0.0
2017-Oct-14 22:58N 37°55' E 023°04'0 0.0
2017-Oct-14 22:28N 37°55' E 023°04'0 0.1
2017-Oct-14 21:58N 37°55' E 023°04'0 0.0
2017-Oct-14 21:28N 37°55' E 023°04'0 0.0
2017-Oct-14 20:58N 37°55' E 023°04'0 0.0
2017-Oct-14 20:28N 37°55' E 023°04'0 0.0
2017-Oct-14 19:58N 37°55' E 023°04'0 0.2
2017-Oct-14 19:28N 37°54' E 023°05'0 0.1
2017-Oct-14 18:58N 37°54' E 023°04'0 0.0
2017-Oct-14 18:28N 37°54' E 023°04'0 0.1
2017-Oct-14 17:58N 37°54' E 023°04'0 0.0
2017-Oct-14 17:28N 37°54' E 023°04'0 0.1
2017-Oct-14 16:58N 37°54' E 023°04'0 0.0
2017-Oct-14 16:28N 37°54' E 023°04'0 0.0
2017-Oct-14 15:58N 37°54' E 023°04'0 0.0
2017-Oct-14 15:28N 37°54' E 023°04'0 0.0
2017-Oct-14 14:58N 37°55' E 023°04'0 0.1
2017-Oct-14 14:28N 37°54' E 023°04'0 0.1
2017-Oct-14 13:58N 37°54' E 023°04'0 0.0
2017-Oct-14 13:28N 37°54' E 023°04'0 0.2
2017-Oct-14 13:00N 37°55' E 023°04'2 3.1
2017-Oct-14 12:30N 37°55' E 023°02'4 6.0
2017-Oct-14 11:50N 37°57' E 022°58'1 4.0
2017-Oct-14 11:30N 37°58' E 022°57'2 3.3
2017-Oct-14 11:00N 37°58' E 022°55'3 0.1
2017-Oct-12 07:53N 37°60' E 022°52'4 9.8
2017-Oct-12 07:30N 37°58' E 022°56'4 6.4
2017-Oct-12 06:52N 37°55' E 023°00'1 3.6
2017-Oct-12 06:31N 37°55' E 023°02'4 8.1
2017-Oct-12 06:01N 37°54' E 023°07'5 9.4
2017-Oct-12 05:30N 37°55' E 023°12'5 9.5
2017-Oct-12 05:00N 37°56' E 023°18'5 9.6
2017-Oct-12 04:30N 37°57' E 023°24'3 6.0
2017-Oct-12 04:00N 37°60' E 023°26'4 7.8
2017-Oct-12 03:30N 38°02' E 023°30'1 1.3
2017-Oct-12 03:00N 38°02' E 023°30'0 0.0
2017-Oct-12 02:30N 38°02' E 023°30'0 0.0
2017-Oct-12 02:00N 38°02' E 023°30'0 0.0
2017-Oct-12 01:31N 38°02' E 023°30'0 0.0
2017-Oct-12 01:01N 38°02' E 023°30'0 0.0
2017-Oct-12 00:31N 38°02' E 023°30'0 0.0
2017-Oct-12 00:00N 38°02' E 023°30'0 0.0
2017-Oct-11 23:30N 38°02' E 023°30'0 0.0
2017-Oct-11 23:00N 38°02' E 023°30'0 0.0
2017-Oct-11 22:31N 38°02' E 023°30'0 0.0
2017-Oct-11 22:01N 38°02' E 023°30'0 0.0
2017-Oct-11 21:31N 38°02' E 023°30'0 0.5
2017-Oct-11 21:00N 38°02' E 023°30'1 1.8
2017-Oct-11 20:31N 38°02' E 023°32'0 0.1
2017-Oct-11 20:01N 38°02' E 023°32'0 0.0
2017-Oct-11 19:31N 38°02' E 023°32'0 0.0
2017-Oct-11 19:00N 38°02' E 023°32'0 0.0
2017-Oct-11 18:31N 38°02' E 023°32'0 0.0
2017-Oct-11 18:01N 38°02' E 023°32'0 0.1
2017-Oct-11 17:31N 38°02' E 023°32'0 0.0
2017-Oct-11 17:01N 38°02' E 023°32'11 0.6
2017-Oct-11 00:00N 37°53' E 023°24'510.4
2017-Oct-10 23:30N 37°50' E 023°29'510.2
2017-Oct-10 23:00N 37°49' E 023°35'510.0
2017-Oct-10 22:30N 37°47' E 023°41'510.3
2017-Oct-10 22:00N 37°42' E 023°44'5 9.9
2017-Oct-10 21:30N 37°39' E 023°49'139 9.5
2017-Oct-10 06:51N 39°48' E 024°58'4 9.7
2017-Oct-10 06:27N 39°51' E 024°59'810.1
2017-Oct-10 05:37N 39°60' E 025°00'210.7
2017-Oct-10 05:26N 40°01' E 025°02'510.3
2017-Oct-10 04:55N 40°06' E 025°06'510.1
2017-Oct-10 04:27N 40°10' E 025°09'4 9.8
2017-Oct-10 04:01N 40°13' E 025°12'  
Track history (hours):
 
Tides and Currents Weather Stations Pressure Air Temp Water Temp Dewpoint Dewpoint Depression Visibility Wind Speed Wind Dir Waves Ship Positions

Eviapetrol I

Last reported at 2017-Oct-20 03:30 UTC. Time now 2017-Oct-20 03:43 UTC.
Position N 37°55' E 023°05'.

Length 75 m; draft 4.6 m.

Type: Tanker. MMSI: 240285000.

Date/timePositionNaut miles runAvg speedWind from/ knotsBaromVisibWave heightAir tempDewpointWater temp
2017-Oct-20 03:30N 37°55' E 023°05'0 0.1
2017-Oct-20 03:00N 37°55' E 023°05'1 1.2
2017-Oct-20 02:30N 37°55' E 023°06'0 0.1
2017-Oct-20 02:00N 37°55' E 023°06'0 0.0
2017-Oct-20 01:30N 37°55' E 023°06'0 0.0
2017-Oct-20 01:00N 37°55' E 023°06'0 0.0
2017-Oct-20 00:30N 37°55' E 023°06'0 0.0
2017-Oct-20 00:00N 37°55' E 023°06'0 0.0
2017-Oct-19 23:30N 37°55' E 023°06'0 0.0
2017-Oct-19 23:00N 37°55' E 023°06'0 0.0
2017-Oct-19 22:30N 37°55' E 023°06'0 0.1
2017-Oct-19 22:00N 37°55' E 023°06'1 1.2
2017-Oct-19 21:29N 37°55' E 023°05'0 0.0
2017-Oct-19 20:59N 37°55' E 023°05'0 0.0
2017-Oct-19 20:29N 37°55' E 023°05'0 0.0
2017-Oct-19 19:59N 37°55' E 023°05'0 0.0
2017-Oct-19 19:29N 37°55' E 023°05'0 0.0
2017-Oct-19 18:59N 37°55' E 023°05'0 0.0
2017-Oct-19 18:29N 37°55' E 023°05'0 0.0
2017-Oct-19 17:59N 37°55' E 023°05'0 0.0
2017-Oct-19 17:29N 37°55' E 023°05'0 0.0
2017-Oct-19 16:59N 37°55' E 023°05'1 1.1
2017-Oct-19 16:29N 37°55' E 023°06'0 0.4
2017-Oct-19 15:59N 37°54' E 023°06'0 1.0
2017-Oct-19 15:29N 37°55' E 023°06'0 0.0
2017-Oct-19 14:59N 37°55' E 023°06'0 0.0
2017-Oct-19 14:29N 37°55' E 023°06'0 0.0
2017-Oct-19 13:59N 37°55' E 023°06'0 0.0
2017-Oct-19 13:29N 37°55' E 023°06'0 0.1
2017-Oct-19 12:59N 37°55' E 023°06'0 0.1
2017-Oct-19 12:29N 37°55' E 023°06'0 0.0
2017-Oct-19 11:59N 37°55' E 023°06'0 0.0
2017-Oct-19 11:29N 37°55' E 023°06'0 0.0
2017-Oct-19 10:59N 37°55' E 023°06'0 0.0
2017-Oct-19 10:29N 37°55' E 023°06'0 0.0
2017-Oct-19 09:59N 37°55' E 023°06'0 0.0
2017-Oct-19 09:29N 37°55' E 023°06'0 0.0
2017-Oct-19 08:59N 37°55' E 023°06'0 0.0
2017-Oct-19 08:29N 37°55' E 023°06'0 0.0
2017-Oct-19 07:59N 37°55' E 023°06'0 0.0
2017-Oct-19 07:29N 37°55' E 023°06'0 0.0
2017-Oct-19 06:59N 37°55' E 023°06'0 0.0
2017-Oct-19 06:29N 37°55' E 023°06'0 0.0
2017-Oct-19 05:59N 37°55' E 023°06'0 0.1
2017-Oct-19 05:29N 37°55' E 023°06'0 0.0
2017-Oct-19 04:59N 37°55' E 023°06'0 0.0
2017-Oct-19 04:29N 37°55' E 023°06'0 0.0
2017-Oct-19 03:59N 37°55' E 023°06'0 0.0
2017-Oct-19 03:29N 37°55' E 023°06'0 0.0
2017-Oct-19 02:59N 37°55' E 023°06'0 0.0
2017-Oct-19 02:29N 37°55' E 023°06'0 0.0
2017-Oct-19 01:59N 37°55' E 023°06'0 0.0
2017-Oct-19 01:29N 37°55' E 023°06'0 0.0
2017-Oct-19 00:59N 37°55' E 023°06'0 0.0
2017-Oct-19 00:29N 37°55' E 023°06'0 0.0
2017-Oct-18 23:59N 37°55' E 023°06'0 0.0
2017-Oct-18 23:29N 37°55' E 023°06'0 0.0
2017-Oct-18 22:59N 37°55' E 023°06'0 0.0
2017-Oct-18 22:29N 37°55' E 023°06'0 0.0
2017-Oct-18 21:59N 37°55' E 023°06'0 0.0
2017-Oct-18 21:29N 37°55' E 023°06'0 0.0
2017-Oct-18 20:59N 37°55' E 023°06'0 0.0
2017-Oct-18 20:29N 37°55' E 023°06'0 0.0
2017-Oct-18 19:59N 37°55' E 023°06'0 0.0
2017-Oct-18 19:29N 37°55' E 023°06'0 0.0
2017-Oct-18 18:59N 37°55' E 023°06'0 0.0
2017-Oct-18 18:29N 37°55' E 023°06'0 0.4
2017-Oct-18 18:00N 37°55' E 023°06'4 8.7
2017-Oct-18 17:30N 37°51' E 023°09'510.3
2017-Oct-18 17:00N 37°47' E 023°13'510.3
2017-Oct-18 16:30N 37°43' E 023°17'5 9.5
2017-Oct-18 16:00N 37°40' E 023°21'610.0
2017-Oct-18 15:27N 37°38' E 023°28'510.3
2017-Oct-18 15:00N 37°35' E 023°33'1010.2
2017-Oct-18 14:00N 37°29' E 023°43'  
2017-Oct-16 04:09N 37°37' E 023°59'3 9.8
2017-Oct-16 03:50N 37°37' E 023°55'3 9.7
2017-Oct-16 03:30N 37°38' E 023°51'5 9.5
2017-Oct-16 03:00N 37°39' E 023°46'5 9.3
2017-Oct-16 02:30N 37°42' E 023°41'510.1
2017-Oct-16 02:00N 37°47' E 023°38'5 9.9
2017-Oct-16 01:30N 37°51' E 023°35'4 6.8
2017-Oct-16 00:58N 37°54' E 023°32'0 0.1
2017-Oct-16 00:28N 37°54' E 023°32'0 0.0
2017-Oct-15 23:58N 37°54' E 023°32'0 0.0
2017-Oct-15 23:28N 37°54' E 023°32'0 0.0
2017-Oct-15 22:58N 37°54' E 023°32'0 0.0
2017-Oct-15 22:28N 37°54' E 023°32'0 0.1
2017-Oct-15 21:58N 37°54' E 023°32'1 3.1
2017-Oct-15 21:30N 37°53' E 023°31'5 9.2
2017-Oct-15 21:01N 37°52' E 023°25'5 9.8
2017-Oct-15 20:31N 37°53' E 023°19'5 9.9
2017-Oct-15 20:00N 37°54' E 023°13'510.0
2017-Oct-15 19:31N 37°54' E 023°07'1 2.3
2017-Oct-15 18:58N 37°55' E 023°05'0 0.0
2017-Oct-15 17:46N 37°55' E 023°05'0 0.0
2017-Oct-15 17:13N 37°55' E 023°05'0 0.0
2017-Oct-15 16:58N 37°55' E 023°05'0 0.0
2017-Oct-15 16:28N 37°55' E 023°05'0 0.0
2017-Oct-15 15:58N 37°55' E 023°05'0 0.0
2017-Oct-15 15:28N 37°55' E 023°05'0 0.0
2017-Oct-15 14:58N 37°55' E 023°05'0 0.0
2017-Oct-15 13:58N 37°55' E 023°05'0 0.0
2017-Oct-15 13:28N 37°55' E 023°05'0 0.0
2017-Oct-15 12:58N 37°55' E 023°05'0 0.0
2017-Oct-15 12:28N 37°55' E 023°05'0 0.0
2017-Oct-15 11:58N 37°55' E 023°05'0 0.0
2017-Oct-15 11:28N 37°55' E 023°05'0 0.0
2017-Oct-15 10:58N 37°55' E 023°05'0 0.0
2017-Oct-15 10:28N 37°55' E 023°05'0 0.0
2017-Oct-15 09:58N 37°55' E 023°05'0 0.0
2017-Oct-15 09:28N 37°55' E 023°05'0 0.0
2017-Oct-15 08:58N 37°55' E 023°05'0 0.0
2017-Oct-15 08:28N 37°55' E 023°05'0 0.0
2017-Oct-15 07:58N 37°55' E 023°05'0 0.0
2017-Oct-15 07:28N 37°55' E 023°05'0 0.0
2017-Oct-15 06:58N 37°55' E 023°05'0 0.0
2017-Oct-15 06:28N 37°55' E 023°05'0 0.0
2017-Oct-15 05:58N 37°55' E 023°05'0 0.0
2017-Oct-15 05:28N 37°55' E 023°05'0 0.0
2017-Oct-15 04:58N 37°55' E 023°05'0 0.0
2017-Oct-15 04:28N 37°55' E 023°05'0 0.0
2017-Oct-15 03:58N 37°55' E 023°05'0 0.0
2017-Oct-15 03:28N 37°55' E 023°05'0 0.0
2017-Oct-15 02:58N 37°55' E 023°05'0 0.0
2017-Oct-15 02:28N 37°55' E 023°05'0 0.0
2017-Oct-15 01:58N 37°55' E 023°05'1 1.1
2017-Oct-15 01:30N 37°55' E 023°05'0 0.5
2017-Oct-15 00:58N 37°54' E 023°05'0 0.0
2017-Oct-15 00:28N 37°54' E 023°05'0 0.0
2017-Oct-14 23:58N 37°54' E 023°04'0 0.1
2017-Oct-14 23:28N 37°55' E 023°05'0 0.0
2017-Oct-14 22:58N 37°55' E 023°04'0 0.0
2017-Oct-14 22:28N 37°55' E 023°04'0 0.1
2017-Oct-14 21:58N 37°55' E 023°04'0 0.0
2017-Oct-14 21:28N 37°55' E 023°04'0 0.0
2017-Oct-14 20:58N 37°55' E 023°04'0 0.0
2017-Oct-14 20:28N 37°55' E 023°04'0 0.0
2017-Oct-14 19:58N 37°55' E 023°04'0 0.2
2017-Oct-14 19:28N 37°54' E 023°05'0 0.1
2017-Oct-14 18:58N 37°54' E 023°04'0 0.0
2017-Oct-14 18:28N 37°54' E 023°04'0 0.1
2017-Oct-14 17:58N 37°54' E 023°04'0 0.0
2017-Oct-14 17:28N 37°54' E 023°04'0 0.1
2017-Oct-14 16:58N 37°54' E 023°04'0 0.0
2017-Oct-14 16:28N 37°54' E 023°04'0 0.0
2017-Oct-14 15:58N 37°54' E 023°04'0 0.0
2017-Oct-14 15:28N 37°54' E 023°04'0 0.0
2017-Oct-14 14:58N 37°55' E 023°04'0 0.1
2017-Oct-14 14:28N 37°54' E 023°04'0 0.1
2017-Oct-14 13:58N 37°54' E 023°04'0 0.0
2017-Oct-14 13:28N 37°54' E 023°04'0 0.2
2017-Oct-14 13:00N 37°55' E 023°04'2 3.1
2017-Oct-14 12:30N 37°55' E 023°02'4 6.0
2017-Oct-14 11:50N 37°57' E 022°58'1 4.0
2017-Oct-14 11:30N 37°58' E 022°57'2 3.3
2017-Oct-14 11:00N 37°58' E 022°55'3 0.1
2017-Oct-12 07:53N 37°60' E 022°52'4 9.8
2017-Oct-12 07:30N 37°58' E 022°56'4 6.4
2017-Oct-12 06:52N 37°55' E 023°00'1 3.6
2017-Oct-12 06:31N 37°55' E 023°02'4 8.1
2017-Oct-12 06:01N 37°54' E 023°07'5 9.4
2017-Oct-12 05:30N 37°55' E 023°12'5 9.5
2017-Oct-12 05:00N 37°56' E 023°18'5 9.6
2017-Oct-12 04:30N 37°57' E 023°24'3 6.0
2017-Oct-12 04:00N 37°60' E 023°26'4 7.8
2017-Oct-12 03:30N 38°02' E 023°30'1 1.3
2017-Oct-12 03:00N 38°02' E 023°30'0 0.0
2017-Oct-12 02:30N 38°02' E 023°30'0 0.0
2017-Oct-12 02:00N 38°02' E 023°30'0 0.0
2017-Oct-12 01:31N 38°02' E 023°30'0 0.0
2017-Oct-12 01:01N 38°02' E 023°30'0 0.0
2017-Oct-12 00:31N 38°02' E 023°30'0 0.0
2017-Oct-12 00:00N 38°02' E 023°30'0 0.0
2017-Oct-11 23:30N 38°02' E 023°30'0 0.0
2017-Oct-11 23:00N 38°02' E 023°30'0 0.0
2017-Oct-11 22:31N 38°02' E 023°30'0 0.0
2017-Oct-11 22:01N 38°02' E 023°30'0 0.0
2017-Oct-11 21:31N 38°02' E 023°30'0 0.5
2017-Oct-11 21:00N 38°02' E 023°30'1 1.8
2017-Oct-11 20:31N 38°02' E 023°32'0 0.1
2017-Oct-11 20:01N 38°02' E 023°32'0 0.0
2017-Oct-11 19:31N 38°02' E 023°32'0 0.0
2017-Oct-11 19:00N 38°02' E 023°32'0 0.0
2017-Oct-11 18:31N 38°02' E 023°32'0 0.0
2017-Oct-11 18:01N 38°02' E 023°32'0 0.1
2017-Oct-11 17:31N 38°02' E 023°32'0 0.0
2017-Oct-11 17:01N 38°02' E 023°32'11 0.6
2017-Oct-11 00:00N 37°53' E 023°24'510.4
2017-Oct-10 23:30N 37°50' E 023°29'510.2
2017-Oct-10 23:00N 37°49' E 023°35'510.0
2017-Oct-10 22:30N 37°47' E 023°41'510.3
2017-Oct-10 22:00N 37°42' E 023°44'5 9.9
2017-Oct-10 21:30N 37°39' E 023°49'139 9.5
2017-Oct-10 06:51N 39°48' E 024°58'4 9.7
2017-Oct-10 06:27N 39°51' E 024°59'810.1
2017-Oct-10 05:37N 39°60' E 025°00'210.7
2017-Oct-10 05:26N 40°01' E 025°02'510.3
2017-Oct-10 04:55N 40°06' E 025°06'510.1
2017-Oct-10 04:27N 40°10' E 025°09'4 9.8
2017-Oct-10 04:01N 40°13' E 025°12'  

Dump ship's entire track history